sensor_id;sensor_type;location;lat;lon;timestamp;temperature;humidity
17266;DHT22;8749;47.076;15.412;2022-07-03T00:01:29;23.90;93.70
17266;DHT22;8749;47.076;15.412;2022-07-03T00:03:58;23.80;93.80
17266;DHT22;8749;47.076;15.412;2022-07-03T00:06:26;23.70;93.90
17266;DHT22;8749;47.076;15.412;2022-07-03T00:08:53;23.60;93.90
17266;DHT22;8749;47.076;15.412;2022-07-03T00:11:20;23.60;94.00
17266;DHT22;8749;47.076;15.412;2022-07-03T00:13:47;23.50;94.20
17266;DHT22;8749;47.076;15.412;2022-07-03T00:16:14;23.50;94.50
17266;DHT22;8749;47.076;15.412;2022-07-03T00:18:42;23.50;94.60
17266;DHT22;8749;47.076;15.412;2022-07-03T00:21:11;23.50;94.60
17266;DHT22;8749;47.076;15.412;2022-07-03T00:23:42;23.50;94.60
17266;DHT22;8749;47.076;15.412;2022-07-03T00:26:11;23.50;94.60
17266;DHT22;8749;47.076;15.412;2022-07-03T00:28:40;23.50;94.60
17266;DHT22;8749;47.076;15.412;2022-07-03T00:31:09;23.50;94.60
17266;DHT22;8749;47.076;15.412;2022-07-03T00:33:37;23.40;94.70
17266;DHT22;8749;47.076;15.412;2022-07-03T00:36:05;23.40;94.60
17266;DHT22;8749;47.076;15.412;2022-07-03T00:38:34;23.30;94.50
17266;DHT22;8749;47.076;15.412;2022-07-03T00:41:02;23.30;94.70
17266;DHT22;8749;47.076;15.412;2022-07-03T00:43:29;23.30;94.70
17266;DHT22;8749;47.076;15.412;2022-07-03T00:46:03;23.20;94.80
17266;DHT22;8749;47.076;15.412;2022-07-03T00:48:36;23.20;94.90
17266;DHT22;8749;47.076;15.412;2022-07-03T00:51:06;23.20;95.00
17266;DHT22;8749;47.076;15.412;2022-07-03T00:53:36;23.20;95.20
17266;DHT22;8749;47.076;15.412;2022-07-03T00:56:04;23.10;95.10
17266;DHT22;8749;47.076;15.412;2022-07-03T00:58:32;23.10;95.10
17266;DHT22;8749;47.076;15.412;2022-07-03T01:01:00;23.00;95.30
17266;DHT22;8749;47.076;15.412;2022-07-03T01:03:28;23.00;95.40
17266;DHT22;8749;47.076;15.412;2022-07-03T01:06:03;22.90;95.50
17266;DHT22;8749;47.076;15.412;2022-07-03T01:08:43;22.90;95.50
17266;DHT22;8749;47.076;15.412;2022-07-03T01:11:18;22.90;95.60
17266;DHT22;8749;47.076;15.412;2022-07-03T01:13:57;22.90;95.70
17266;DHT22;8749;47.076;15.412;2022-07-03T01:16:31;22.90;95.70
17266;DHT22;8749;47.076;15.412;2022-07-03T01:19:10;22.90;95.70
17266;DHT22;8749;47.076;15.412;2022-07-03T01:21:41;22.90;95.60
17266;DHT22;8749;47.076;15.412;2022-07-03T01:24:37;22.90;95.70
17266;DHT22;8749;47.076;15.412;2022-07-03T01:27:12;22.90;95.90
17266;DHT22;8749;47.076;15.412;2022-07-03T01:29:50;22.80;95.90
17266;DHT22;8749;47.076;15.412;2022-07-03T01:32:19;22.80;95.90
17266;DHT22;8749;47.076;15.412;2022-07-03T01:34:51;22.80;95.90
17266;DHT22;8749;47.076;15.412;2022-07-03T01:37:21;22.80;95.90
17266;DHT22;8749;47.076;15.412;2022-07-03T01:39:52;22.80;95.80
17266;DHT22;8749;47.076;15.412;2022-07-03T01:42:23;22.80;95.90
17266;DHT22;8749;47.076;15.412;2022-07-03T01:44:51;22.80;95.80
17266;DHT22;8749;47.076;15.412;2022-07-03T01:47:19;22.80;95.90
17266;DHT22;8749;47.076;15.412;2022-07-03T01:49:48;22.70;95.90
17266;DHT22;8749;47.076;15.412;2022-07-03T01:52:16;22.70;96.00
17266;DHT22;8749;47.076;15.412;2022-07-03T01:54:45;22.70;96.00
17266;DHT22;8749;47.076;15.412;2022-07-03T01:57:13;22.70;96.10
17266;DHT22;8749;47.076;15.412;2022-07-03T01:59:41;22.60;96.10
17266;DHT22;8749;47.076;15.412;2022-07-03T02:02:14;22.60;96.20
17266;DHT22;8749;47.076;15.412;2022-07-03T02:04:52;22.60;96.30
17266;DHT22;8749;47.076;15.412;2022-07-03T02:07:25;22.60;96.40
17266;DHT22;8749;47.076;15.412;2022-07-03T02:10:03;22.50;96.40
17266;DHT22;8749;47.076;15.412;2022-07-03T02:12:37;22.50;96.40
17266;DHT22;8749;47.076;15.412;2022-07-03T02:15:09;22.40;96.50
17266;DHT22;8749;47.076;15.412;2022-07-03T02:17:38;22.30;96.70
17266;DHT22;8749;47.076;15.412;2022-07-03T02:20:07;22.30;96.80
17266;DHT22;8749;47.076;15.412;2022-07-03T02:22:40;22.30;96.80
17266;DHT22;8749;47.076;15.412;2022-07-03T02:25:09;22.20;97.00
17266;DHT22;8749;47.076;15.412;2022-07-03T02:27:42;22.20;97.00
17266;DHT22;8749;47.076;15.412;2022-07-03T02:30:12;22.20;97.00
17266;DHT22;8749;47.076;15.412;2022-07-03T02:32:43;22.20;97.10
17266;DHT22;8749;47.076;15.412;2022-07-03T02:35:12;22.20;97.10
17266;DHT22;8749;47.076;15.412;2022-07-03T02:37:45;22.20;97.20
17266;DHT22;8749;47.076;15.412;2022-07-03T02:40:22;22.30;97.00
17266;DHT22;8749;47.076;15.412;2022-07-03T02:42:58;22.30;97.00
17266;DHT22;8749;47.076;15.412;2022-07-03T02:45:38;22.30;97.00
17266;DHT22;8749;47.076;15.412;2022-07-03T02:48:10;22.30;96.90
17266;DHT22;8749;47.076;15.412;2022-07-03T02:50:40;22.30;97.00
17266;DHT22;8749;47.076;15.412;2022-07-03T02:53:19;22.30;97.10
17266;DHT22;8749;47.076;15.412;2022-07-03T02:55:48;22.30;97.10
17266;DHT22;8749;47.076;15.412;2022-07-03T02:58:41;22.20;97.30
17266;DHT22;8749;47.076;15.412;2022-07-03T03:01:20;22.20;97.30
17266;DHT22;8749;47.076;15.412;2022-07-03T03:03:57;22.10;97.50
17266;DHT22;8749;47.076;15.412;2022-07-03T03:06:29;22.10;97.60
17266;DHT22;8749;47.076;15.412;2022-07-03T03:09:01;22.00;97.30
17266;DHT22;8749;47.076;15.412;2022-07-03T03:11:32;21.90;97.10
17266;DHT22;8749;47.076;15.412;2022-07-03T03:14:07;21.80;97.00
17266;DHT22;8749;47.076;15.412;2022-07-03T03:16:36;21.80;96.90
17266;DHT22;8749;47.076;15.412;2022-07-03T03:19:09;21.80;96.90
17266;DHT22;8749;47.076;15.412;2022-07-03T03:21:42;21.80;97.00
17266;DHT22;8749;47.076;15.412;2022-07-03T03:24:13;21.80;97.20
17266;DHT22;8749;47.076;15.412;2022-07-03T03:26:40;21.90;97.00
17266;DHT22;8749;47.076;15.412;2022-07-03T03:29:07;22.00;96.90
17266;DHT22;8749;47.076;15.412;2022-07-03T03:31:35;22.10;97.00
17266;DHT22;8749;47.076;15.412;2022-07-03T03:34:03;22.10;96.80
17266;DHT22;8749;47.076;15.412;2022-07-03T03:36:31;22.20;96.80
17266;DHT22;8749;47.076;15.412;2022-07-03T03:38:58;22.20;97.00
17266;DHT22;8749;47.076;15.412;2022-07-03T03:41:25;22.20;97.10
17266;DHT22;8749;47.076;15.412;2022-07-03T03:43:52;22.20;97.10
17266;DHT22;8749;47.076;15.412;2022-07-03T03:46:19;22.30;97.10
17266;DHT22;8749;47.076;15.412;2022-07-03T03:48:47;22.30;97.10
17266;DHT22;8749;47.076;15.412;2022-07-03T03:51:14;22.40;97.10
17266;DHT22;8749;47.076;15.412;2022-07-03T03:53:41;22.40;97.10
17266;DHT22;8749;47.076;15.412;2022-07-03T03:56:10;22.40;97.10
17266;DHT22;8749;47.076;15.412;2022-07-03T03:58:39;22.50;96.90
17266;DHT22;8749;47.076;15.412;2022-07-03T04:01:08;22.50;96.70
17266;DHT22;8749;47.076;15.412;2022-07-03T04:03:36;22.40;96.70
17266;DHT22;8749;47.076;15.412;2022-07-03T04:06:05;22.40;96.80
17266;DHT22;8749;47.076;15.412;2022-07-03T04:08:32;22.20;96.80
17266;DHT22;8749;47.076;15.412;2022-07-03T04:10:59;22.10;97.10
17266;DHT22;8749;47.076;15.412;2022-07-03T04:13:27;22.10;97.10
17266;DHT22;8749;47.076;15.412;2022-07-03T04:15:54;22.10;97.10
17266;DHT22;8749;47.076;15.412;2022-07-03T04:18:23;22.10;97.10
17266;DHT22;8749;47.076;15.412;2022-07-03T04:20:50;22.10;97.10
17266;DHT22;8749;47.076;15.412;2022-07-03T04:23:19;22.20;97.10
17266;DHT22;8749;47.076;15.412;2022-07-03T04:25:46;22.30;97.10
17266;DHT22;8749;47.076;15.412;2022-07-03T04:28:13;22.40;97.10
17266;DHT22;8749;47.076;15.412;2022-07-03T04:30:40;22.50;97.10
17266;DHT22;8749;47.076;15.412;2022-07-03T04:33:07;22.50;97.10
17266;DHT22;8749;47.076;15.412;2022-07-03T04:35:34;22.60;97.10
17266;DHT22;8749;47.076;15.412;2022-07-03T04:38:01;22.70;96.90
17266;DHT22;8749;47.076;15.412;2022-07-03T04:40:29;22.80;96.90
17266;DHT22;8749;47.076;15.412;2022-07-03T04:42:56;22.80;96.80
17266;DHT22;8749;47.076;15.412;2022-07-03T04:45:23;22.90;96.70
17266;DHT22;8749;47.076;15.412;2022-07-03T04:47:50;22.90;96.80
17266;DHT22;8749;47.076;15.412;2022-07-03T04:50:17;23.10;96.70
17266;DHT22;8749;47.076;15.412;2022-07-03T04:52:44;23.10;96.60
17266;DHT22;8749;47.076;15.412;2022-07-03T04:55:11;23.20;96.60
17266;DHT22;8749;47.076;15.412;2022-07-03T04:57:39;23.20;96.40
17266;DHT22;8749;47.076;15.412;2022-07-03T05:00:07;23.20;96.40
17266;DHT22;8749;47.076;15.412;2022-07-03T05:02:34;23.30;96.30
17266;DHT22;8749;47.076;15.412;2022-07-03T05:05:01;23.30;96.20
17266;DHT22;8749;47.076;15.412;2022-07-03T05:07:28;23.40;96.20
17266;DHT22;8749;47.076;15.412;2022-07-03T05:09:55;23.40;96.10
17266;DHT22;8749;47.076;15.412;2022-07-03T05:12:23;23.50;96.10
17266;DHT22;8749;47.076;15.412;2022-07-03T05:14:52;23.40;95.90
17266;DHT22;8749;47.076;15.412;2022-07-03T05:17:19;23.40;96.00
17266;DHT22;8749;47.076;15.412;2022-07-03T05:19:46;23.30;96.10
17266;DHT22;8749;47.076;15.412;2022-07-03T05:22:13;23.30;96.20
17266;DHT22;8749;47.076;15.412;2022-07-03T05:24:40;23.20;96.20
17266;DHT22;8749;47.076;15.412;2022-07-03T05:27:07;23.20;96.30
17266;DHT22;8749;47.076;15.412;2022-07-03T05:29:34;23.30;96.20
17266;DHT22;8749;47.076;15.412;2022-07-03T05:32:03;23.30;96.10
17266;DHT22;8749;47.076;15.412;2022-07-03T05:34:30;23.40;96.10
17266;DHT22;8749;47.076;15.412;2022-07-03T05:36:56;23.40;96.20
17266;DHT22;8749;47.076;15.412;2022-07-03T05:39:23;23.50;96.10
17266;DHT22;8749;47.076;15.412;2022-07-03T05:41:59;23.60;96.00
17266;DHT22;8749;47.076;15.412;2022-07-03T05:44:26;23.70;95.70
17266;DHT22;8749;47.076;15.412;2022-07-03T05:46:53;23.80;95.50
17266;DHT22;8749;47.076;15.412;2022-07-03T05:49:21;23.80;95.50
17266;DHT22;8749;47.076;15.412;2022-07-03T05:51:49;23.90;95.40
17266;DHT22;8749;47.076;15.412;2022-07-03T05:54:16;23.90;95.40
17266;DHT22;8749;47.076;15.412;2022-07-03T05:56:42;23.90;95.40
17266;DHT22;8749;47.076;15.412;2022-07-03T05:59:09;24.00;95.30
17266;DHT22;8749;47.076;15.412;2022-07-03T06:01:36;24.10;95.20
17266;DHT22;8749;47.076;15.412;2022-07-03T06:04:03;24.20;95.00
17266;DHT22;8749;47.076;15.412;2022-07-03T06:06:32;24.30;94.60
17266;DHT22;8749;47.076;15.412;2022-07-03T06:08:59;24.30;94.60
17266;DHT22;8749;47.076;15.412;2022-07-03T06:11:26;24.40;94.60
17266;DHT22;8749;47.076;15.412;2022-07-03T06:13:53;24.40;94.70
17266;DHT22;8749;47.076;15.412;2022-07-03T06:16:19;24.20;94.80
17266;DHT22;8749;47.076;15.412;2022-07-03T06:18:46;24.40;94.80
17266;DHT22;8749;47.076;15.412;2022-07-03T06:21:13;24.50;94.70
17266;DHT22;8749;47.076;15.412;2022-07-03T06:23:42;24.50;94.60
17266;DHT22;8749;47.076;15.412;2022-07-03T06:26:09;24.60;94.50
17266;DHT22;8749;47.076;15.412;2022-07-03T06:28:36;24.70;94.30
17266;DHT22;8749;47.076;15.412;2022-07-03T06:31:02;24.80;94.40
17266;DHT22;8749;47.076;15.412;2022-07-03T06:33:30;24.80;94.20
17266;DHT22;8749;47.076;15.412;2022-07-03T06:35:57;24.80;94.40
17266;DHT22;8749;47.076;15.412;2022-07-03T06:38:24;24.90;94.40
17266;DHT22;8749;47.076;15.412;2022-07-03T06:40:52;25.10;94.30
17266;DHT22;8749;47.076;15.412;2022-07-03T06:43:19;25.10;94.20
17266;DHT22;8749;47.076;15.412;2022-07-03T06:45:46;25.20;93.90
17266;DHT22;8749;47.076;15.412;2022-07-03T06:48:13;25.20;93.90
17266;DHT22;8749;47.076;15.412;2022-07-03T06:50:40;25.20;94.00
17266;DHT22;8749;47.076;15.412;2022-07-03T06:53:07;25.20;94.00
17266;DHT22;8749;47.076;15.412;2022-07-03T06:55:34;25.30;93.70
17266;DHT22;8749;47.076;15.412;2022-07-03T06:58:02;25.30;93.60
17266;DHT22;8749;47.076;15.412;2022-07-03T07:00:29;25.40;93.40
17266;DHT22;8749;47.076;15.412;2022-07-03T07:02:56;25.40;93.30
17266;DHT22;8749;47.076;15.412;2022-07-03T07:05:23;25.40;92.70
17266;DHT22;8749;47.076;15.412;2022-07-03T07:07:50;25.50;92.50
17266;DHT22;8749;47.076;15.412;2022-07-03T07:10:17;25.40;92.60
17266;DHT22;8749;47.076;15.412;2022-07-03T07:12:44;25.50;92.50
17266;DHT22;8749;47.076;15.412;2022-07-03T07:15:12;25.60;91.80
17266;DHT22;8749;47.076;15.412;2022-07-03T07:17:39;25.60;92.00
17266;DHT22;8749;47.076;15.412;2022-07-03T07:20:08;25.60;91.60
17266;DHT22;8749;47.076;15.412;2022-07-03T07:22:35;25.70;91.60
17266;DHT22;8749;47.076;15.412;2022-07-03T07:25:02;25.80;91.20
17266;DHT22;8749;47.076;15.412;2022-07-03T07:27:29;25.80;91.00
17266;DHT22;8749;47.076;15.412;2022-07-03T07:29:56;25.80;90.90
17266;DHT22;8749;47.076;15.412;2022-07-03T07:32:25;25.90;90.90
17266;DHT22;8749;47.076;15.412;2022-07-03T07:34:51;25.70;90.70
17266;DHT22;8749;47.076;15.412;2022-07-03T07:37:18;25.80;90.80
17266;DHT22;8749;47.076;15.412;2022-07-03T07:39:45;25.80;90.40
17266;DHT22;8749;47.076;15.412;2022-07-03T07:42:12;25.90;90.40
17266;DHT22;8749;47.076;15.412;2022-07-03T07:44:41;25.90;90.60
17266;DHT22;8749;47.076;15.412;2022-07-03T07:47:08;25.90;90.60
17266;DHT22;8749;47.076;15.412;2022-07-03T07:49:36;25.90;90.60
17266;DHT22;8749;47.076;15.412;2022-07-03T07:52:04;25.80;90.60
17266;DHT22;8749;47.076;15.412;2022-07-03T07:54:31;25.70;90.80
17266;DHT22;8749;47.076;15.412;2022-07-03T07:56:57;25.70;91.00
17266;DHT22;8749;47.076;15.412;2022-07-03T07:59:24;25.70;91.10
17266;DHT22;8749;47.076;15.412;2022-07-03T08:01:51;25.70;90.90
17266;DHT22;8749;47.076;15.412;2022-07-03T08:04:37;25.80;90.80
17266;DHT22;8749;47.076;15.412;2022-07-03T08:07:21;25.70;91.00
17266;DHT22;8749;47.076;15.412;2022-07-03T08:09:48;25.50;91.10
17266;DHT22;8749;47.076;15.412;2022-07-03T08:12:18;25.60;90.90
17266;DHT22;8749;47.076;15.412;2022-07-03T08:14:45;25.70;91.10
17266;DHT22;8749;47.076;15.412;2022-07-03T08:17:12;25.80;90.80
17266;DHT22;8749;47.076;15.412;2022-07-03T08:19:40;25.90;90.80
17266;DHT22;8749;47.076;15.412;2022-07-03T08:22:07;25.90;90.90
17266;DHT22;8749;47.076;15.412;2022-07-03T08:24:34;25.80;90.90
17266;DHT22;8749;47.076;15.412;2022-07-03T08:27:01;25.90;91.00
17266;DHT22;8749;47.076;15.412;2022-07-03T08:29:28;26.00;90.90
17266;DHT22;8749;47.076;15.412;2022-07-03T08:31:54;26.00;90.90
17266;DHT22;8749;47.076;15.412;2022-07-03T08:34:22;26.10;90.80
17266;DHT22;8749;47.076;15.412;2022-07-03T08:36:50;26.10;90.80
17266;DHT22;8749;47.076;15.412;2022-07-03T08:39:17;26.10;90.80
17266;DHT22;8749;47.076;15.412;2022-07-03T08:41:45;26.20;90.80
17266;DHT22;8749;47.076;15.412;2022-07-03T08:44:13;26.20;90.80
17266;DHT22;8749;47.076;15.412;2022-07-03T08:46:42;26.30;90.60
17266;DHT22;8749;47.076;15.412;2022-07-03T08:49:10;26.40;90.90
17266;DHT22;8749;47.076;15.412;2022-07-03T08:51:37;26.40;90.80
17266;DHT22;8749;47.076;15.412;2022-07-03T08:54:07;26.50;90.80
17266;DHT22;8749;47.076;15.412;2022-07-03T08:56:35;26.50;90.70
17266;DHT22;8749;47.076;15.412;2022-07-03T08:59:03;26.50;90.90
17266;DHT22;8749;47.076;15.412;2022-07-03T09:01:32;26.50;90.80
17266;DHT22;8749;47.076;15.412;2022-07-03T09:04:00;26.60;91.00
17266;DHT22;8749;47.076;15.412;2022-07-03T09:06:30;26.70;91.00
17266;DHT22;8749;47.076;15.412;2022-07-03T09:09:01;26.70;90.80
17266;DHT22;8749;47.076;15.412;2022-07-03T09:11:30;26.80;91.30
17266;DHT22;8749;47.076;15.412;2022-07-03T09:13:56;26.90;91.20
17266;DHT22;8749;47.076;15.412;2022-07-03T09:16:23;27.00;91.30
17266;DHT22;8749;47.076;15.412;2022-07-03T09:18:50;27.00;91.20
17266;DHT22;8749;47.076;15.412;2022-07-03T09:21:17;26.90;91.20
17266;DHT22;8749;47.076;15.412;2022-07-03T09:23:46;26.90;91.20
17266;DHT22;8749;47.076;15.412;2022-07-03T09:26:14;26.80;91.30
17266;DHT22;8749;47.076;15.412;2022-07-03T09:28:45;27.00;91.20
17266;DHT22;8749;47.076;15.412;2022-07-03T09:31:13;27.00;91.00
17266;DHT22;8749;47.076;15.412;2022-07-03T09:33:57;27.00;91.20
17266;DHT22;8749;47.076;15.412;2022-07-03T09:36:38;27.10;91.30
17266;DHT22;8749;47.076;15.412;2022-07-03T09:39:17;27.20;91.10
17266;DHT22;8749;47.076;15.412;2022-07-03T09:41:55;27.20;91.20
17266;DHT22;8749;47.076;15.412;2022-07-03T09:44:35;27.30;90.90
17266;DHT22;8749;47.076;15.412;2022-07-03T09:47:13;27.20;91.10
17266;DHT22;8749;47.076;15.412;2022-07-03T09:49:45;27.30;90.90
17266;DHT22;8749;47.076;15.412;2022-07-03T09:52:29;27.30;90.90
17266;DHT22;8749;47.076;15.412;2022-07-03T09:54:56;27.40;91.40
17266;DHT22;8749;47.076;15.412;2022-07-03T09:57:23;27.40;90.90
17266;DHT22;8749;47.076;15.412;2022-07-03T10:00:17;27.50;90.70
17266;DHT22;8749;47.076;15.412;2022-07-03T10:02:56;27.50;90.70
17266;DHT22;8749;47.076;15.412;2022-07-03T10:05:24;27.50;90.50
17266;DHT22;8749;47.076;15.412;2022-07-03T10:07:53;27.60;90.70
17266;DHT22;8749;47.076;15.412;2022-07-03T10:10:22;27.70;90.60
17266;DHT22;8749;47.076;15.412;2022-07-03T10:12:50;27.70;90.50
17266;DHT22;8749;47.076;15.412;2022-07-03T10:15:20;27.80;90.50
17266;DHT22;8749;47.076;15.412;2022-07-03T10:17:48;27.90;90.80
17266;DHT22;8749;47.076;15.412;2022-07-03T10:20:28;28.00;90.60
17266;DHT22;8749;47.076;15.412;2022-07-03T10:22:55;28.00;90.20
17266;DHT22;8749;47.076;15.412;2022-07-03T10:25:23;28.00;90.40
17266;DHT22;8749;47.076;15.412;2022-07-03T10:27:50;28.10;90.60
17266;DHT22;8749;47.076;15.412;2022-07-03T10:30:20;28.10;90.60
17266;DHT22;8749;47.076;15.412;2022-07-03T10:32:49;28.20;91.00
17266;DHT22;8749;47.076;15.412;2022-07-03T10:35:19;28.30;90.30
17266;DHT22;8749;47.076;15.412;2022-07-03T10:37:56;28.40;90.10
17266;DHT22;8749;47.076;15.412;2022-07-03T10:40:32;28.40;89.50
17266;DHT22;8749;47.076;15.412;2022-07-03T10:43:25;28.40;89.60
17266;DHT22;8749;47.076;15.412;2022-07-03T10:46:13;28.40;89.80
17266;DHT22;8749;47.076;15.412;2022-07-03T10:49:01;28.50;89.80
17266;DHT22;8749;47.076;15.412;2022-07-03T10:51:31;28.60;89.90
17266;DHT22;8749;47.076;15.412;2022-07-03T10:54:15;28.60;90.10
17266;DHT22;8749;47.076;15.412;2022-07-03T10:57:08;28.70;89.10
17266;DHT22;8749;47.076;15.412;2022-07-03T11:00:04;28.90;89.10
17266;DHT22;8749;47.076;15.412;2022-07-03T11:02:37;28.90;88.60
17266;DHT22;8749;47.076;15.412;2022-07-03T11:05:15;29.00;88.40
17266;DHT22;8749;47.076;15.412;2022-07-03T11:08:04;29.10;89.20
17266;DHT22;8749;47.076;15.412;2022-07-03T11:10:36;29.20;89.10
17266;DHT22;8749;47.076;15.412;2022-07-03T11:13:32;29.30;89.70
17266;DHT22;8749;47.076;15.412;2022-07-03T11:15:59;29.40;88.60
17266;DHT22;8749;47.076;15.412;2022-07-03T11:18:30;29.50;89.30
17266;DHT22;8749;47.076;15.412;2022-07-03T11:24:24;29.70;88.00
17266;DHT22;8749;47.076;15.412;2022-07-03T11:27:25;29.80;86.90
17266;DHT22;8749;47.076;15.412;2022-07-03T11:29:56;29.90;86.60
17266;DHT22;8749;47.076;15.412;2022-07-03T11:32:46;30.00;87.70
17266;DHT22;8749;47.076;15.412;2022-07-03T11:35:45;30.10;87.70
17266;DHT22;8749;47.076;15.412;2022-07-03T11:38:21;30.10;88.00
17266;DHT22;8749;47.076;15.412;2022-07-03T11:40:50;30.20;87.80
17266;DHT22;8749;47.076;15.412;2022-07-03T11:43:18;30.30;87.50
17266;DHT22;8749;47.076;15.412;2022-07-03T11:45:47;30.40;86.90
17266;DHT22;8749;47.076;15.412;2022-07-03T11:48:17;30.50;87.20
17266;DHT22;8749;47.076;15.412;2022-07-03T11:50:47;30.50;85.40
17266;DHT22;8749;47.076;15.412;2022-07-03T11:53:19;30.50;85.90
17266;DHT22;8749;47.076;15.412;2022-07-03T11:55:47;30.60;85.60
17266;DHT22;8749;47.076;15.412;2022-07-03T11:58:15;30.70;86.00
17266;DHT22;8749;47.076;15.412;2022-07-03T12:00:42;30.80;85.60
17266;DHT22;8749;47.076;15.412;2022-07-03T12:03:14;31.00;85.70
17266;DHT22;8749;47.076;15.412;2022-07-03T12:05:51;31.20;85.30
17266;DHT22;8749;47.076;15.412;2022-07-03T12:08:23;31.30;84.60
17266;DHT22;8749;47.076;15.412;2022-07-03T12:10:55;31.40;84.60
17266;DHT22;8749;47.076;15.412;2022-07-03T12:13:23;31.40;84.10
17266;DHT22;8749;47.076;15.412;2022-07-03T12:15:50;31.40;84.50
17266;DHT22;8749;47.076;15.412;2022-07-03T12:18:17;31.50;84.10
17266;DHT22;8749;47.076;15.412;2022-07-03T12:20:44;31.60;84.10
17266;DHT22;8749;47.076;15.412;2022-07-03T12:23:13;31.70;84.60
17266;DHT22;8749;47.076;15.412;2022-07-03T12:25:40;31.90;84.80
17266;DHT22;8749;47.076;15.412;2022-07-03T12:28:08;32.10;84.90
17266;DHT22;8749;47.076;15.412;2022-07-03T12:30:36;32.30;84.00
17266;DHT22;8749;47.076;15.412;2022-07-03T12:33:04;32.40;83.40
17266;DHT22;8749;47.076;15.412;2022-07-03T12:35:32;32.30;82.70
17266;DHT22;8749;47.076;15.412;2022-07-03T12:37:59;32.40;82.50
17266;DHT22;8749;47.076;15.412;2022-07-03T12:40:28;32.60;81.50
17266;DHT22;8749;47.076;15.412;2022-07-03T12:42:55;32.60;81.20
17266;DHT22;8749;47.076;15.412;2022-07-03T12:45:27;32.70;81.30
17266;DHT22;8749;47.076;15.412;2022-07-03T12:47:57;33.00;81.90
17266;DHT22;8749;47.076;15.412;2022-07-03T12:50:25;33.20;81.70
17266;DHT22;8749;47.076;15.412;2022-07-03T12:52:54;33.30;81.10
17266;DHT22;8749;47.076;15.412;2022-07-03T12:55:25;33.50;81.10
17266;DHT22;8749;47.076;15.412;2022-07-03T12:58:13;33.60;81.60
17266;DHT22;8749;47.076;15.412;2022-07-03T13:00:58;33.90;81.20
17266;DHT22;8749;47.076;15.412;2022-07-03T13:03:29;34.10;80.20
17266;DHT22;8749;47.076;15.412;2022-07-03T13:05:57;34.20;80.00
17266;DHT22;8749;47.076;15.412;2022-07-03T13:08:24;34.20;79.10
17266;DHT22;8749;47.076;15.412;2022-07-03T13:10:55;34.30;77.70
17266;DHT22;8749;47.076;15.412;2022-07-03T13:13:24;34.20;78.80
17266;DHT22;8749;47.076;15.412;2022-07-03T13:15:51;34.30;78.60
17266;DHT22;8749;47.076;15.412;2022-07-03T13:18:18;34.30;78.40
17266;DHT22;8749;47.076;15.412;2022-07-03T13:20:45;34.50;77.90
17266;DHT22;8749;47.076;15.412;2022-07-03T13:23:12;34.60;77.00
17266;DHT22;8749;47.076;15.412;2022-07-03T13:25:39;34.70;77.20
17266;DHT22;8749;47.076;15.412;2022-07-03T13:28:09;34.80;76.20
17266;DHT22;8749;47.076;15.412;2022-07-03T13:30:39;34.80;76.40
17266;DHT22;8749;47.076;15.412;2022-07-03T13:33:07;34.80;77.20
17266;DHT22;8749;47.076;15.412;2022-07-03T13:35:34;34.80;77.30
17266;DHT22;8749;47.076;15.412;2022-07-03T13:38:02;35.00;77.20
17266;DHT22;8749;47.076;15.412;2022-07-03T13:40:29;35.00;76.40
17266;DHT22;8749;47.076;15.412;2022-07-03T13:42:56;35.10;76.20
17266;DHT22;8749;47.076;15.412;2022-07-03T13:45:23;35.30;76.00
17266;DHT22;8749;47.076;15.412;2022-07-03T13:47:51;35.50;76.40
17266;DHT22;8749;47.076;15.412;2022-07-03T13:50:18;35.70;76.10
17266;DHT22;8749;47.076;15.412;2022-07-03T13:52:45;35.60;74.60
17266;DHT22;8749;47.076;15.412;2022-07-03T13:55:12;35.50;75.10
17266;DHT22;8749;47.076;15.412;2022-07-03T13:57:39;35.60;75.60
17266;DHT22;8749;47.076;15.412;2022-07-03T14:00:08;35.70;76.00
17266;DHT22;8749;47.076;15.412;2022-07-03T14:02:35;35.80;74.40
17266;DHT22;8749;47.076;15.412;2022-07-03T14:05:04;35.70;74.30
17266;DHT22;8749;47.076;15.412;2022-07-03T14:07:32;35.80;74.30
17266;DHT22;8749;47.076;15.412;2022-07-03T14:09:58;35.80;73.40
17266;DHT22;8749;47.076;15.412;2022-07-03T14:12:25;36.10;74.20
17266;DHT22;8749;47.076;15.412;2022-07-03T14:14:52;36.20;74.00
17266;DHT22;8749;47.076;15.412;2022-07-03T14:17:19;36.30;73.20
17266;DHT22;8749;47.076;15.412;2022-07-03T14:19:46;36.30;73.40
17266;DHT22;8749;47.076;15.412;2022-07-03T14:22:14;36.20;73.40
17266;DHT22;8749;47.076;15.412;2022-07-03T14:24:41;36.30;73.00
17266;DHT22;8749;47.076;15.412;2022-07-03T14:27:08;36.30;72.70
17266;DHT22;8749;47.076;15.412;2022-07-03T14:29:53;36.50;72.10
17266;DHT22;8749;47.076;15.412;2022-07-03T14:32:37;36.60;72.10
17266;DHT22;8749;47.076;15.412;2022-07-03T14:35:05;36.70;71.60
17266;DHT22;8749;47.076;15.412;2022-07-03T14:37:34;36.80;73.90
17266;DHT22;8749;47.076;15.412;2022-07-03T14:40:01;36.90;71.10
17266;DHT22;8749;47.076;15.412;2022-07-03T14:42:28;37.10;70.70
17266;DHT22;8749;47.076;15.412;2022-07-03T14:44:55;37.30;70.40
17266;DHT22;8749;47.076;15.412;2022-07-03T14:47:21;36.90;70.10
17266;DHT22;8749;47.076;15.412;2022-07-03T14:49:48;37.00;71.00
17266;DHT22;8749;47.076;15.412;2022-07-03T14:52:15;37.10;70.50
17266;DHT22;8749;47.076;15.412;2022-07-03T14:54:44;37.20;70.60
17266;DHT22;8749;47.076;15.412;2022-07-03T14:57:24;37.30;69.30
17266;DHT22;8749;47.076;15.412;2022-07-03T15:00:01;37.40;69.00
17266;DHT22;8749;47.076;15.412;2022-07-03T15:02:33;37.50;68.80
17266;DHT22;8749;47.076;15.412;2022-07-03T15:05:06;37.60;68.60
17266;DHT22;8749;47.076;15.412;2022-07-03T15:07:37;37.60;68.60
17266;DHT22;8749;47.076;15.412;2022-07-03T15:10:08;37.60;68.30
17266;DHT22;8749;47.076;15.412;2022-07-03T15:12:38;37.80;67.40
17266;DHT22;8749;47.076;15.412;2022-07-03T15:15:09;37.80;66.90
17266;DHT22;8749;47.076;15.412;2022-07-03T15:17:37;38.00;66.90
17266;DHT22;8749;47.076;15.412;2022-07-03T15:20:04;38.00;67.00
17266;DHT22;8749;47.076;15.412;2022-07-03T15:22:34;38.10;67.10
17266;DHT22;8749;47.076;15.412;2022-07-03T15:25:03;38.50;66.60
17266;DHT22;8749;47.076;15.412;2022-07-03T15:27:33;38.80;65.70
17266;DHT22;8749;47.076;15.412;2022-07-03T15:30:00;39.00;65.20
17266;DHT22;8749;47.076;15.412;2022-07-03T15:32:27;39.40;65.80
17266;DHT22;8749;47.076;15.412;2022-07-03T15:34:55;39.00;64.20
17266;DHT22;8749;47.076;15.412;2022-07-03T15:37:39;39.00;65.30
17266;DHT22;8749;47.076;15.412;2022-07-03T15:40:13;39.40;69.80
17266;DHT22;8749;47.076;15.412;2022-07-03T15:42:51;39.90;64.20
17266;DHT22;8749;47.076;15.412;2022-07-03T15:45:34;40.80;62.00
17266;DHT22;8749;47.076;15.412;2022-07-03T15:48:07;41.40;60.30
17266;DHT22;8749;47.076;15.412;2022-07-03T15:50:40;42.20;67.90
17266;DHT22;8749;47.076;15.412;2022-07-03T15:53:17;43.60;60.60